الصفحة الرئيسية
METAR-TAF:

METAR-TAF

مطار :

مطار بغداد الدولي

بغداد, العراق

دائرة عرض: 33-15-45N, خط طول: 44-14-04E, ارتفاع: 35 متر

مراقبة الطقس الحالي

تاريخ ووقت الإصدار 21 دقيقة قبل الساعة 03:00UTC
ريح 8 عقدة من الشمال/الشمال الغربي
درجة الحرارة 11°درجة مئوية
الرطوبة 94%
ضغط 1017 hPa
الرؤية: 0650 متر
ضباب

METAR: ORBI 160300Z 34008KT 0650 FG VV001 11/10 Q1017 NOSIG

زمن: 06:21 (03:21 UTC)

توقعات

تاريخ ووقت الإصدار 5ساعات و 21 دقيقة قبل الساعة 22:00UTC
التوقعات صالحة من16 الساعة 00 UTC إلى 16 الساعة 24 UTC
ريح 6 عقدة من الشمال/الشمال الغربي
الرؤية: 1500 متر
غيوم متفرقة على ارتفاع 3000 قدم
غيوم مفككة على ارتفاع 8000 قدم
غشاء
مؤقت
من 16 الساعة 01 UTC إلى 16 الساعة 04 UTC
الرؤية: 0800 متر
رقع من الضباب
مؤقت
من 16 الساعة 03 UTC إلى 16 الساعة 08 UTC
الرؤية: 3000 متر
زخات من الأمطار الخفيفة

TAF: ORBI 152200Z 1600/1624 34006KT 1500 BR SCT030 BKN080 TEMPO 1601/1604 0800 BCFG TEMPO 1603/1608 3000 -SHRA

أرصاد الطقس والتوقعات من أكثر من 4000 مطار (تقارير الطقس للمطار METAR والتنبؤ بالطقس بالمطارTAF).

المحطات المتاحة هي النقط الصفراء والحمراء على الخريطة.

حرك المؤشر فوق النقطة لمعرفة اسم المحطة.

ثم انقر لمعرفة أرصاد وتوقعات الطقس.

لتغيير الخارطة: اضغط على الأزرار الخضراء مع رمز الصليب الأسود للتكبير. على الزر الأخضر مع شرطة للتصغير، أو على الأسهم الخضراء للخرائط المجاورة.


METAR-TAF: